sensor_id;sensor_type;location;lat;lon;timestamp;P1;durP1;ratioP1;P2;durP2;ratioP2
23743;SDS011;12052;53.478;10.182;2022-07-03T00:02:07;2.47;;;1.60;;
23743;SDS011;12052;53.478;10.182;2022-07-03T00:04:33;2.95;;;1.48;;
23743;SDS011;12052;53.478;10.182;2022-07-03T00:06:59;2.13;;;1.70;;
23743;SDS011;12052;53.478;10.182;2022-07-03T00:09:24;1.63;;;1.45;;
23743;SDS011;12052;53.478;10.182;2022-07-03T00:11:50;2.30;;;1.73;;
23743;SDS011;12052;53.478;10.182;2022-07-03T00:14:16;1.42;;;1.33;;
23743;SDS011;12052;53.478;10.182;2022-07-03T00:16:41;3.63;;;1.50;;
23743;SDS011;12052;53.478;10.182;2022-07-03T00:19:07;1.73;;;1.48;;
23743;SDS011;12052;53.478;10.182;2022-07-03T00:22:06;2.25;;;1.58;;
23743;SDS011;12052;53.478;10.182;2022-07-03T00:24:32;4.32;;;1.50;;
23743;SDS011;12052;53.478;10.182;2022-07-03T00:27:10;2.15;;;1.70;;
23743;SDS011;12052;53.478;10.182;2022-07-03T00:29:46;2.60;;;1.58;;
23743;SDS011;12052;53.478;10.182;2022-07-03T00:32:18;2.55;;;1.63;;
23743;SDS011;12052;53.478;10.182;2022-07-03T00:34:46;2.43;;;1.43;;
23743;SDS011;12052;53.478;10.182;2022-07-03T00:37:12;6.38;;;1.80;;
23743;SDS011;12052;53.478;10.182;2022-07-03T00:39:41;2.10;;;1.67;;
23743;SDS011;12052;53.478;10.182;2022-07-03T00:42:08;2.95;;;1.58;;
23743;SDS011;12052;53.478;10.182;2022-07-03T00:44:35;2.55;;;1.30;;
23743;SDS011;12052;53.478;10.182;2022-07-03T00:47:22;2.30;;;1.73;;
23743;SDS011;12052;53.478;10.182;2022-07-03T00:49:50;2.05;;;1.40;;
23743;SDS011;12052;53.478;10.182;2022-07-03T00:52:18;4.20;;;2.10;;
23743;SDS011;12052;53.478;10.182;2022-07-03T00:54:50;1.90;;;1.77;;
23743;SDS011;12052;53.478;10.182;2022-07-03T00:57:26;3.55;;;1.60;;
23743;SDS011;12052;53.478;10.182;2022-07-03T00:59:54;5.32;;;1.70;;
23743;SDS011;12052;53.478;10.182;2022-07-03T01:02:34;3.80;;;1.90;;
23743;SDS011;12052;53.478;10.182;2022-07-03T01:17:02;1.75;;;1.65;;
23743;SDS011;12052;53.478;10.182;2022-07-03T01:19:39;2.47;;;1.77;;
23743;SDS011;12052;53.478;10.182;2022-07-03T01:30:55;2.25;;;1.77;;
23743;SDS011;12052;53.478;10.182;2022-07-03T01:33:24;2.15;;;1.60;;
23743;SDS011;12052;53.478;10.182;2022-07-03T01:35:58;2.10;;;1.87;;
23743;SDS011;12052;53.478;10.182;2022-07-03T01:38:27;1.80;;;1.67;;
23743;SDS011;12052;53.478;10.182;2022-07-03T01:40:55;1.92;;;1.73;;
23743;SDS011;12052;53.478;10.182;2022-07-03T01:43:24;3.63;;;1.50;;
23743;SDS011;12052;53.478;10.182;2022-07-03T01:45:56;3.70;;;1.60;;
23743;SDS011;12052;53.478;10.182;2022-07-03T01:48:23;3.67;;;1.67;;
23743;SDS011;12052;53.478;10.182;2022-07-03T01:50:50;3.65;;;1.90;;
23743;SDS011;12052;53.478;10.182;2022-07-03T01:53:16;3.33;;;1.90;;
23743;SDS011;12052;53.478;10.182;2022-07-03T01:55:43;1.63;;;1.50;;
23743;SDS011;12052;53.478;10.182;2022-07-03T01:58:09;3.38;;;1.80;;
23743;SDS011;12052;53.478;10.182;2022-07-03T02:00:46;2.45;;;1.70;;
23743;SDS011;12052;53.478;10.182;2022-07-03T02:03:23;1.67;;;1.58;;
23743;SDS011;12052;53.478;10.182;2022-07-03T02:05:52;2.55;;;1.83;;
23743;SDS011;12052;53.478;10.182;2022-07-03T02:08:31;2.85;;;1.70;;
23743;SDS011;12052;53.478;10.182;2022-07-03T02:11:10;4.63;;;2.00;;
23743;SDS011;12052;53.478;10.182;2022-07-03T02:13:52;1.92;;;1.73;;
23743;SDS011;12052;53.478;10.182;2022-07-03T02:16:20;2.08;;;1.80;;
23743;SDS011;12052;53.478;10.182;2022-07-03T02:19:06;3.40;;;1.65;;
23743;SDS011;12052;53.478;10.182;2022-07-03T02:21:36;2.40;;;1.80;;
23743;SDS011;12052;53.478;10.182;2022-07-03T02:26:37;2.00;;;1.45;;
23743;SDS011;12052;53.478;10.182;2022-07-03T02:29:05;2.60;;;1.50;;
23743;SDS011;12052;53.478;10.182;2022-07-03T02:31:41;1.98;;;1.70;;
23743;SDS011;12052;53.478;10.182;2022-07-03T02:34:08;2.13;;;1.80;;
23743;SDS011;12052;53.478;10.182;2022-07-03T02:36:40;2.53;;;1.80;;
23743;SDS011;12052;53.478;10.182;2022-07-03T02:39:12;6.63;;;2.10;;
23743;SDS011;12052;53.478;10.182;2022-07-03T02:41:50;1.70;;;1.60;;
23743;SDS011;12052;53.478;10.182;2022-07-03T02:44:34;4.40;;;1.70;;
23743;SDS011;12052;53.478;10.182;2022-07-03T02:47:12;3.38;;;1.90;;
23743;SDS011;12052;53.478;10.182;2022-07-03T02:49:56;2.45;;;1.77;;
23743;SDS011;12052;53.478;10.182;2022-07-03T02:57:55;2.60;;;1.90;;
23743;SDS011;12052;53.478;10.182;2022-07-03T03:00:37;5.70;;;1.98;;
23743;SDS011;12052;53.478;10.182;2022-07-03T03:03:06;2.65;;;1.90;;
23743;SDS011;12052;53.478;10.182;2022-07-03T03:08:21;1.60;;;1.50;;
23743;SDS011;12052;53.478;10.182;2022-07-03T03:10:49;5.45;;;1.65;;
23743;SDS011;12052;53.478;10.182;2022-07-03T03:13:16;2.45;;;1.85;;
23743;SDS011;12052;53.478;10.182;2022-07-03T03:15:48;4.60;;;1.80;;
23743;SDS011;12052;53.478;10.182;2022-07-03T03:18:33;1.90;;;1.80;;
23743;SDS011;12052;53.478;10.182;2022-07-03T03:21:08;5.38;;;1.80;;
23743;SDS011;12052;53.478;10.182;2022-07-03T03:23:44;2.50;;;1.60;;
23743;SDS011;12052;53.478;10.182;2022-07-03T03:26:14;6.30;;;2.00;;
23743;SDS011;12052;53.478;10.182;2022-07-03T03:28:44;3.53;;;2.00;;
23743;SDS011;12052;53.478;10.182;2022-07-03T03:31:10;4.00;;;2.00;;
23743;SDS011;12052;53.478;10.182;2022-07-03T03:33:39;2.10;;;1.75;;
23743;SDS011;12052;53.478;10.182;2022-07-03T03:36:10;2.90;;;2.03;;
23743;SDS011;12052;53.478;10.182;2022-07-03T03:38:37;2.15;;;1.95;;
23743;SDS011;12052;53.478;10.182;2022-07-03T03:41:03;2.67;;;2.15;;
23743;SDS011;12052;53.478;10.182;2022-07-03T03:43:30;4.18;;;1.77;;
23743;SDS011;12052;53.478;10.182;2022-07-03T03:45:56;5.18;;;1.80;;
23743;SDS011;12052;53.478;10.182;2022-07-03T03:48:23;4.55;;;1.90;;
23743;SDS011;12052;53.478;10.182;2022-07-03T03:50:51;2.20;;;1.70;;
23743;SDS011;12052;53.478;10.182;2022-07-03T03:53:17;2.83;;;1.65;;
23743;SDS011;12052;53.478;10.182;2022-07-03T03:56:04;3.85;;;2.05;;
23743;SDS011;12052;53.478;10.182;2022-07-03T03:58:32;4.13;;;2.00;;
23743;SDS011;12052;53.478;10.182;2022-07-03T04:00:59;2.17;;;1.98;;
23743;SDS011;12052;53.478;10.182;2022-07-03T04:03:26;2.33;;;2.10;;
23743;SDS011;12052;53.478;10.182;2022-07-03T04:05:53;3.83;;;1.70;;
23743;SDS011;12052;53.478;10.182;2022-07-03T04:08:20;3.20;;;2.03;;
23743;SDS011;12052;53.478;10.182;2022-07-03T04:10:47;4.35;;;1.65;;
23743;SDS011;12052;53.478;10.182;2022-07-03T04:13:13;4.43;;;1.77;;
23743;SDS011;12052;53.478;10.182;2022-07-03T04:15:39;2.45;;;1.95;;
23743;SDS011;12052;53.478;10.182;2022-07-03T04:18:05;4.35;;;2.00;;
23743;SDS011;12052;53.478;10.182;2022-07-03T04:20:31;2.40;;;1.88;;
23743;SDS011;12052;53.478;10.182;2022-07-03T04:22:57;2.40;;;1.83;;
23743;SDS011;12052;53.478;10.182;2022-07-03T04:25:23;3.80;;;2.00;;
23743;SDS011;12052;53.478;10.182;2022-07-03T04:27:49;3.17;;;1.85;;
23743;SDS011;12052;53.478;10.182;2022-07-03T04:30:14;2.10;;;1.90;;
23743;SDS011;12052;53.478;10.182;2022-07-03T04:32:40;2.08;;;1.95;;
23743;SDS011;12052;53.478;10.182;2022-07-03T04:35:07;4.53;;;2.10;;
23743;SDS011;12052;53.478;10.182;2022-07-03T04:37:33;2.83;;;2.08;;
23743;SDS011;12052;53.478;10.182;2022-07-03T04:39:59;4.00;;;1.92;;
23743;SDS011;12052;53.478;10.182;2022-07-03T04:42:24;2.08;;;1.83;;
23743;SDS011;12052;53.478;10.182;2022-07-03T04:44:50;2.10;;;1.90;;
23743;SDS011;12052;53.478;10.182;2022-07-03T04:47:15;2.35;;;1.98;;
23743;SDS011;12052;53.478;10.182;2022-07-03T04:49:41;2.08;;;1.88;;
23743;SDS011;12052;53.478;10.182;2022-07-03T04:52:07;2.35;;;2.08;;
23743;SDS011;12052;53.478;10.182;2022-07-03T04:54:33;4.65;;;2.00;;
23743;SDS011;12052;53.478;10.182;2022-07-03T04:56:59;2.63;;;1.67;;
23743;SDS011;12052;53.478;10.182;2022-07-03T04:59:25;2.35;;;2.13;;
23743;SDS011;12052;53.478;10.182;2022-07-03T05:01:50;1.80;;;1.70;;
23743;SDS011;12052;53.478;10.182;2022-07-03T05:04:16;1.92;;;1.65;;
23743;SDS011;12052;53.478;10.182;2022-07-03T05:06:42;2.78;;;2.08;;
23743;SDS011;12052;53.478;10.182;2022-07-03T05:09:07;3.30;;;1.85;;
23743;SDS011;12052;53.478;10.182;2022-07-03T05:11:33;2.50;;;1.95;;
23743;SDS011;12052;53.478;10.182;2022-07-03T05:13:59;6.78;;;2.22;;
23743;SDS011;12052;53.478;10.182;2022-07-03T05:16:24;3.63;;;1.92;;
23743;SDS011;12052;53.478;10.182;2022-07-03T05:18:50;2.55;;;2.10;;
23743;SDS011;12052;53.478;10.182;2022-07-03T05:21:15;3.38;;;1.95;;
23743;SDS011;12052;53.478;10.182;2022-07-03T05:23:41;2.72;;;2.03;;
23743;SDS011;12052;53.478;10.182;2022-07-03T05:26:07;5.78;;;2.15;;
23743;SDS011;12052;53.478;10.182;2022-07-03T05:28:32;3.17;;;2.20;;
23743;SDS011;12052;53.478;10.182;2022-07-03T05:30:58;3.65;;;2.42;;
23743;SDS011;12052;53.478;10.182;2022-07-03T05:33:23;3.97;;;2.17;;
23743;SDS011;12052;53.478;10.182;2022-07-03T05:35:49;3.13;;;2.10;;
23743;SDS011;12052;53.478;10.182;2022-07-03T05:38:15;2.28;;;2.08;;
23743;SDS011;12052;53.478;10.182;2022-07-03T05:41:00;4.00;;;2.10;;
23743;SDS011;12052;53.478;10.182;2022-07-03T05:43:26;1.90;;;1.80;;
23743;SDS011;12052;53.478;10.182;2022-07-03T05:45:51;3.75;;;2.30;;
23743;SDS011;12052;53.478;10.182;2022-07-03T05:48:17;2.17;;;1.98;;
23743;SDS011;12052;53.478;10.182;2022-07-03T05:50:42;2.03;;;1.83;;
23743;SDS011;12052;53.478;10.182;2022-07-03T05:53:08;2.38;;;2.17;;
23743;SDS011;12052;53.478;10.182;2022-07-03T05:55:33;4.28;;;2.42;;
23743;SDS011;12052;53.478;10.182;2022-07-03T05:57:59;3.38;;;2.00;;
23743;SDS011;12052;53.478;10.182;2022-07-03T06:00:25;4.18;;;2.15;;
23743;SDS011;12052;53.478;10.182;2022-07-03T06:02:50;2.50;;;1.88;;
23743;SDS011;12052;53.478;10.182;2022-07-03T06:05:16;8.15;;;2.33;;
23743;SDS011;12052;53.478;10.182;2022-07-03T06:07:41;5.93;;;2.10;;
23743;SDS011;12052;53.478;10.182;2022-07-03T06:10:07;2.53;;;2.30;;
23743;SDS011;12052;53.478;10.182;2022-07-03T06:12:33;3.72;;;2.30;;
23743;SDS011;12052;53.478;10.182;2022-07-03T06:14:58;6.28;;;2.08;;
23743;SDS011;12052;53.478;10.182;2022-07-03T06:17:24;2.28;;;1.95;;
23743;SDS011;12052;53.478;10.182;2022-07-03T06:19:49;2.58;;;1.90;;
23743;SDS011;12052;53.478;10.182;2022-07-03T06:22:15;2.58;;;2.10;;
23743;SDS011;12052;53.478;10.182;2022-07-03T06:24:40;2.13;;;2.00;;
23743;SDS011;12052;53.478;10.182;2022-07-03T06:27:06;2.97;;;1.90;;
23743;SDS011;12052;53.478;10.182;2022-07-03T06:29:31;3.08;;;2.13;;
23743;SDS011;12052;53.478;10.182;2022-07-03T06:31:57;6.18;;;1.92;;
23743;SDS011;12052;53.478;10.182;2022-07-03T06:34:23;2.20;;;1.90;;
23743;SDS011;12052;53.478;10.182;2022-07-03T06:36:48;3.97;;;1.90;;
23743;SDS011;12052;53.478;10.182;2022-07-03T06:39:14;2.08;;;1.98;;
23743;SDS011;12052;53.478;10.182;2022-07-03T06:41:39;3.72;;;1.70;;
23743;SDS011;12052;53.478;10.182;2022-07-03T06:44:05;3.58;;;2.10;;
23743;SDS011;12052;53.478;10.182;2022-07-03T06:46:30;2.65;;;2.03;;
23743;SDS011;12052;53.478;10.182;2022-07-03T06:48:56;5.68;;;1.80;;
23743;SDS011;12052;53.478;10.182;2022-07-03T06:51:22;4.13;;;1.95;;
23743;SDS011;12052;53.478;10.182;2022-07-03T06:53:47;2.55;;;1.90;;
23743;SDS011;12052;53.478;10.182;2022-07-03T06:56:13;1.95;;;1.70;;
23743;SDS011;12052;53.478;10.182;2022-07-03T06:58:38;7.70;;;1.90;;
23743;SDS011;12052;53.478;10.182;2022-07-03T07:01:04;5.15;;;2.03;;
23743;SDS011;12052;53.478;10.182;2022-07-03T07:03:29;7.18;;;1.92;;
23743;SDS011;12052;53.478;10.182;2022-07-03T07:05:55;2.80;;;2.05;;
23743;SDS011;12052;53.478;10.182;2022-07-03T07:08:21;3.50;;;2.00;;
23743;SDS011;12052;53.478;10.182;2022-07-03T07:10:46;4.97;;;2.05;;
23743;SDS011;12052;53.478;10.182;2022-07-03T07:13:12;3.05;;;1.90;;
23743;SDS011;12052;53.478;10.182;2022-07-03T07:15:37;6.07;;;1.70;;
23743;SDS011;12052;53.478;10.182;2022-07-03T07:18:03;2.35;;;2.08;;
23743;SDS011;12052;53.478;10.182;2022-07-03T07:20:29;2.00;;;1.58;;
23743;SDS011;12052;53.478;10.182;2022-07-03T07:22:54;2.15;;;1.95;;
23743;SDS011;12052;53.478;10.182;2022-07-03T07:25:20;2.13;;;1.92;;
23743;SDS011;12052;53.478;10.182;2022-07-03T07:27:45;2.38;;;1.77;;
23743;SDS011;12052;53.478;10.182;2022-07-03T07:30:12;2.35;;;2.00;;
23743;SDS011;12052;53.478;10.182;2022-07-03T07:32:38;3.63;;;1.88;;
23743;SDS011;12052;53.478;10.182;2022-07-03T07:35:04;2.53;;;1.73;;
23743;SDS011;12052;53.478;10.182;2022-07-03T07:37:30;2.13;;;1.80;;
23743;SDS011;12052;53.478;10.182;2022-07-03T07:39:56;3.10;;;1.95;;
23743;SDS011;12052;53.478;10.182;2022-07-03T07:42:21;4.38;;;1.85;;
23743;SDS011;12052;53.478;10.182;2022-07-03T07:44:49;3.88;;;2.05;;
23743;SDS011;12052;53.478;10.182;2022-07-03T07:47:17;1.80;;;1.70;;
23743;SDS011;12052;53.478;10.182;2022-07-03T07:49:47;2.35;;;1.55;;
23743;SDS011;12052;53.478;10.182;2022-07-03T07:52:12;2.88;;;1.70;;
23743;SDS011;12052;53.478;10.182;2022-07-03T07:54:38;2.42;;;1.70;;
23743;SDS011;12052;53.478;10.182;2022-07-03T07:57:03;2.45;;;1.95;;
23743;SDS011;12052;53.478;10.182;2022-07-03T07:59:29;1.70;;;1.58;;
23743;SDS011;12052;53.478;10.182;2022-07-03T08:01:55;1.90;;;1.67;;
23743;SDS011;12052;53.478;10.182;2022-07-03T08:04:39;2.75;;;1.70;;
23743;SDS011;12052;53.478;10.182;2022-07-03T08:07:23;1.80;;;1.70;;
23743;SDS011;12052;53.478;10.182;2022-07-03T08:09:48;3.55;;;1.95;;
23743;SDS011;12052;53.478;10.182;2022-07-03T08:12:14;2.00;;;1.60;;
23743;SDS011;12052;53.478;10.182;2022-07-03T08:14:39;2.25;;;1.65;;
23743;SDS011;12052;53.478;10.182;2022-07-03T08:17:05;2.80;;;2.00;;
23743;SDS011;12052;53.478;10.182;2022-07-03T08:19:31;3.88;;;1.90;;
23743;SDS011;12052;53.478;10.182;2022-07-03T08:21:57;4.70;;;2.00;;
23743;SDS011;12052;53.478;10.182;2022-07-03T08:24:23;3.55;;;1.88;;
23743;SDS011;12052;53.478;10.182;2022-07-03T08:26:48;3.90;;;1.75;;
23743;SDS011;12052;53.478;10.182;2022-07-03T08:29:14;4.75;;;2.10;;
23743;SDS011;12052;53.478;10.182;2022-07-03T08:31:39;2.78;;;2.08;;
23743;SDS011;12052;53.478;10.182;2022-07-03T08:34:05;3.67;;;2.17;;
23743;SDS011;12052;53.478;10.182;2022-07-03T08:36:30;2.10;;;1.50;;
23743;SDS011;12052;53.478;10.182;2022-07-03T08:38:56;3.10;;;1.92;;
23743;SDS011;12052;53.478;10.182;2022-07-03T08:41:24;3.55;;;1.63;;
23743;SDS011;12052;53.478;10.182;2022-07-03T08:43:51;2.25;;;1.80;;
23743;SDS011;12052;53.478;10.182;2022-07-03T08:46:18;1.85;;;1.67;;
23743;SDS011;12052;53.478;10.182;2022-07-03T08:48:44;4.93;;;1.83;;
23743;SDS011;12052;53.478;10.182;2022-07-03T08:51:11;2.30;;;1.88;;
23743;SDS011;12052;53.478;10.182;2022-07-03T08:53:38;1.67;;;1.58;;
23743;SDS011;12052;53.478;10.182;2022-07-03T08:56:04;1.85;;;1.67;;
23743;SDS011;12052;53.478;10.182;2022-07-03T08:58:31;1.70;;;1.60;;
23743;SDS011;12052;53.478;10.182;2022-07-03T09:00:57;4.20;;;1.58;;
23743;SDS011;12052;53.478;10.182;2022-07-03T09:03:23;4.82;;;1.80;;
23743;SDS011;12052;53.478;10.182;2022-07-03T09:05:49;1.80;;;1.70;;
23743;SDS011;12052;53.478;10.182;2022-07-03T09:08:16;2.58;;;2.20;;
23743;SDS011;12052;53.478;10.182;2022-07-03T09:10:44;3.17;;;1.63;;
23743;SDS011;12052;53.478;10.182;2022-07-03T09:13:11;6.80;;;2.00;;
23743;SDS011;12052;53.478;10.182;2022-07-03T09:15:36;7.10;;;1.90;;
23743;SDS011;12052;53.478;10.182;2022-07-03T09:18:04;3.33;;;1.80;;
23743;SDS011;12052;53.478;10.182;2022-07-03T09:20:37;4.43;;;1.48;;
23743;SDS011;12052;53.478;10.182;2022-07-03T09:23:11;2.08;;;1.50;;
23743;SDS011;12052;53.478;10.182;2022-07-03T09:25:49;8.32;;;1.75;;
23743;SDS011;12052;53.478;10.182;2022-07-03T09:28:16;1.85;;;1.50;;
23743;SDS011;12052;53.478;10.182;2022-07-03T09:30:55;2.85;;;1.50;;
23743;SDS011;12052;53.478;10.182;2022-07-03T09:33:22;2.45;;;1.52;;
23743;SDS011;12052;53.478;10.182;2022-07-03T09:35:52;2.58;;;1.38;;
23743;SDS011;12052;53.478;10.182;2022-07-03T09:38:19;2.03;;;1.45;;
23743;SDS011;12052;53.478;10.182;2022-07-03T09:40:46;2.80;;;1.40;;
23743;SDS011;12052;53.478;10.182;2022-07-03T09:43:28;6.32;;;1.73;;
23743;SDS011;12052;53.478;10.182;2022-07-03T09:51:19;2.85;;;1.60;;
23743;SDS011;12052;53.478;10.182;2022-07-03T09:53:51;3.08;;;1.30;;
23743;SDS011;12052;53.478;10.182;2022-07-03T09:56:23;2.77;;;1.50;;
23743;SDS011;12052;53.478;10.182;2022-07-03T10:01:39;1.67;;;1.10;;
23743;SDS011;12052;53.478;10.182;2022-07-03T10:06:57;2.75;;;1.10;;
23743;SDS011;12052;53.478;10.182;2022-07-03T10:09:24;4.03;;;0.95;;
23743;SDS011;12052;53.478;10.182;2022-07-03T10:11:55;1.13;;;1.00;;
23743;SDS011;12052;53.478;10.182;2022-07-03T10:14:23;4.75;;;1.48;;
23743;SDS011;12052;53.478;10.182;2022-07-03T10:16:50;11.93;;;1.50;;
23743;SDS011;12052;53.478;10.182;2022-07-03T10:19:17;1.50;;;1.10;;
23743;SDS011;12052;53.478;10.182;2022-07-03T10:21:46;2.85;;;1.10;;
23743;SDS011;12052;53.478;10.182;2022-07-03T10:24:20;2.60;;;1.33;;
23743;SDS011;12052;53.478;10.182;2022-07-03T10:26:54;3.35;;;1.27;;
23743;SDS011;12052;53.478;10.182;2022-07-03T10:29:23;1.98;;;1.20;;
23743;SDS011;12052;53.478;10.182;2022-07-03T10:31:51;2.00;;;1.10;;
23743;SDS011;12052;53.478;10.182;2022-07-03T10:34:18;2.92;;;1.27;;
23743;SDS011;12052;53.478;10.182;2022-07-03T10:36:50;2.88;;;1.13;;
23743;SDS011;12052;53.478;10.182;2022-07-03T10:39:44;1.63;;;1.25;;
23743;SDS011;12052;53.478;10.182;2022-07-03T10:42:24;6.18;;;1.30;;
23743;SDS011;12052;53.478;10.182;2022-07-03T10:45:14;2.25;;;1.45;;
23743;SDS011;12052;53.478;10.182;2022-07-03T10:47:44;2.17;;;1.42;;
23743;SDS011;12052;53.478;10.182;2022-07-03T10:50:14;2.85;;;1.20;;
23743;SDS011;12052;53.478;10.182;2022-07-03T10:52:42;4.25;;;1.10;;
23743;SDS011;12052;53.478;10.182;2022-07-03T10:55:08;1.75;;;1.20;;
23743;SDS011;12052;53.478;10.182;2022-07-03T10:57:35;3.15;;;1.30;;
23743;SDS011;12052;53.478;10.182;2022-07-03T11:00:04;1.27;;;1.15;;
23743;SDS011;12052;53.478;10.182;2022-07-03T11:02:38;3.80;;;1.20;;
23743;SDS011;12052;53.478;10.182;2022-07-03T11:05:07;2.58;;;1.05;;
23743;SDS011;12052;53.478;10.182;2022-07-03T11:08:02;1.55;;;1.30;;
23743;SDS011;12052;53.478;10.182;2022-07-03T11:10:30;2.33;;;0.98;;
23743;SDS011;12052;53.478;10.182;2022-07-03T11:15:33;2.65;;;1.20;;
23743;SDS011;12052;53.478;10.182;2022-07-03T11:28:06;3.17;;;1.20;;
23743;SDS011;12052;53.478;10.182;2022-07-03T11:30:32;2.78;;;1.00;;
23743;SDS011;12052;53.478;10.182;2022-07-03T11:32:58;4.15;;;1.13;;
23743;SDS011;12052;53.478;10.182;2022-07-03T11:38:25;5.40;;;1.13;;
23743;SDS011;12052;53.478;10.182;2022-07-03T11:40:53;3.05;;;1.00;;
23743;SDS011;12052;53.478;10.182;2022-07-03T11:43:20;2.78;;;1.00;;
23743;SDS011;12052;53.478;10.182;2022-07-03T11:45:47;1.80;;;1.23;;
23743;SDS011;12052;53.478;10.182;2022-07-03T11:48:14;2.30;;;1.20;;
23743;SDS011;12052;53.478;10.182;2022-07-03T11:50:45;3.75;;;1.30;;
23743;SDS011;12052;53.478;10.182;2022-07-03T11:53:16;2.05;;;1.25;;
23743;SDS011;12052;53.478;10.182;2022-07-03T11:55:48;1.67;;;1.27;;
23743;SDS011;12052;53.478;10.182;2022-07-03T11:58:16;2.15;;;1.10;;
23743;SDS011;12052;53.478;10.182;2022-07-03T12:00:41;1.85;;;1.10;;
23743;SDS011;12052;53.478;10.182;2022-07-03T12:03:07;4.45;;;1.08;;
23743;SDS011;12052;53.478;10.182;2022-07-03T12:05:33;2.58;;;1.30;;
23743;SDS011;12052;53.478;10.182;2022-07-03T12:08:02;5.00;;;1.10;;
23743;SDS011;12052;53.478;10.182;2022-07-03T12:10:38;1.80;;;1.10;;
23743;SDS011;12052;53.478;10.182;2022-07-03T12:13:17;3.70;;;1.55;;
23743;SDS011;12052;53.478;10.182;2022-07-03T12:15:44;4.75;;;1.23;;
23743;SDS011;12052;53.478;10.182;2022-07-03T12:18:10;2.33;;;1.17;;
23743;SDS011;12052;53.478;10.182;2022-07-03T12:20:35;3.92;;;1.10;;
23743;SDS011;12052;53.478;10.182;2022-07-03T12:23:01;3.70;;;1.10;;
23743;SDS011;12052;53.478;10.182;2022-07-03T12:25:29;2.80;;;1.20;;
23743;SDS011;12052;53.478;10.182;2022-07-03T12:27:54;1.88;;;1.20;;
23743;SDS011;12052;53.478;10.182;2022-07-03T12:30:21;4.55;;;1.30;;
23743;SDS011;12052;53.478;10.182;2022-07-03T12:32:49;1.70;;;0.90;;
23743;SDS011;12052;53.478;10.182;2022-07-03T12:35:20;5.00;;;1.00;;
23743;SDS011;12052;53.478;10.182;2022-07-03T12:37:46;1.38;;;0.90;;
23743;SDS011;12052;53.478;10.182;2022-07-03T12:40:12;1.10;;;0.80;;
23743;SDS011;12052;53.478;10.182;2022-07-03T12:42:49;1.52;;;1.00;;
23743;SDS011;12052;53.478;10.182;2022-07-03T12:45:22;1.17;;;0.93;;
23743;SDS011;12052;53.478;10.182;2022-07-03T12:47:59;2.72;;;1.17;;
23743;SDS011;12052;53.478;10.182;2022-07-03T12:50:44;3.40;;;0.90;;
23743;SDS011;12052;53.478;10.182;2022-07-03T12:55:50;7.43;;;1.00;;
23743;SDS011;12052;53.478;10.182;2022-07-03T12:58:16;2.00;;;0.98;;
23743;SDS011;12052;53.478;10.182;2022-07-03T13:01:06;1.83;;;1.10;;
23743;SDS011;12052;53.478;10.182;2022-07-03T13:03:52;1.92;;;1.00;;
23743;SDS011;12052;53.478;10.182;2022-07-03T13:06:19;1.25;;;1.00;;
23743;SDS011;12052;53.478;10.182;2022-07-03T13:08:53;1.30;;;1.20;;
23743;SDS011;12052;53.478;10.182;2022-07-03T13:11:33;2.38;;;1.00;;
23743;SDS011;12052;53.478;10.182;2022-07-03T13:14:07;3.85;;;1.25;;
23743;SDS011;12052;53.478;10.182;2022-07-03T13:19:23;3.03;;;1.35;;
23743;SDS011;12052;53.478;10.182;2022-07-03T13:21:51;4.03;;;1.40;;
23743;SDS011;12052;53.478;10.182;2022-07-03T13:24:18;5.63;;;1.20;;
23743;SDS011;12052;53.478;10.182;2022-07-03T13:26:44;2.70;;;1.27;;
23743;SDS011;12052;53.478;10.182;2022-07-03T13:29:11;3.10;;;1.20;;
23743;SDS011;12052;53.478;10.182;2022-07-03T13:31:36;4.18;;;1.38;;
23743;SDS011;12052;53.478;10.182;2022-07-03T13:34:02;2.92;;;1.17;;
23743;SDS011;12052;53.478;10.182;2022-07-03T13:36:28;3.05;;;1.27;;
23743;SDS011;12052;53.478;10.182;2022-07-03T13:38:55;1.45;;;1.10;;
23743;SDS011;12052;53.478;10.182;2022-07-03T13:41:21;3.85;;;1.20;;
23743;SDS011;12052;53.478;10.182;2022-07-03T13:43:48;3.03;;;1.13;;
23743;SDS011;12052;53.478;10.182;2022-07-03T13:46:14;2.35;;;1.17;;
23743;SDS011;12052;53.478;10.182;2022-07-03T13:48:41;1.77;;;1.20;;
23743;SDS011;12052;53.478;10.182;2022-07-03T13:51:06;6.22;;;1.15;;
23743;SDS011;12052;53.478;10.182;2022-07-03T13:53:32;3.55;;;1.20;;
23743;SDS011;12052;53.478;10.182;2022-07-03T13:55:58;3.92;;;1.23;;
23743;SDS011;12052;53.478;10.182;2022-07-03T13:58:24;1.52;;;0.90;;
23743;SDS011;12052;53.478;10.182;2022-07-03T14:00:50;1.63;;;1.00;;
23743;SDS011;12052;53.478;10.182;2022-07-03T14:03:16;2.55;;;1.10;;
23743;SDS011;12052;53.478;10.182;2022-07-03T14:05:41;2.58;;;1.30;;
23743;SDS011;12052;53.478;10.182;2022-07-03T14:08:07;4.45;;;1.50;;
23743;SDS011;12052;53.478;10.182;2022-07-03T14:10:32;3.28;;;1.20;;
23743;SDS011;12052;53.478;10.182;2022-07-03T14:12:58;2.88;;;1.10;;
23743;SDS011;12052;53.478;10.182;2022-07-03T14:15:24;1.73;;;0.95;;
23743;SDS011;12052;53.478;10.182;2022-07-03T14:17:49;5.15;;;0.90;;
23743;SDS011;12052;53.478;10.182;2022-07-03T14:20:15;1.60;;;1.00;;
23743;SDS011;12052;53.478;10.182;2022-07-03T14:22:40;3.03;;;1.05;;
23743;SDS011;12052;53.478;10.182;2022-07-03T14:25:06;1.63;;;0.88;;
23743;SDS011;12052;53.478;10.182;2022-07-03T14:27:33;2.10;;;1.00;;
23743;SDS011;12052;53.478;10.182;2022-07-03T14:30:17;2.42;;;1.10;;
23743;SDS011;12052;53.478;10.182;2022-07-03T14:33:01;1.05;;;0.82;;
23743;SDS011;12052;53.478;10.182;2022-07-03T14:35:26;3.72;;;1.02;;
23743;SDS011;12052;53.478;10.182;2022-07-03T14:37:52;1.05;;;0.80;;
23743;SDS011;12052;53.478;10.182;2022-07-03T14:40:18;1.90;;;0.98;;
23743;SDS011;12052;53.478;10.182;2022-07-03T14:42:43;1.60;;;1.00;;
23743;SDS011;12052;53.478;10.182;2022-07-03T14:45:09;1.48;;;1.00;;
23743;SDS011;12052;53.478;10.182;2022-07-03T14:47:35;0.80;;;0.60;;
23743;SDS011;12052;53.478;10.182;2022-07-03T14:50:00;1.38;;;0.88;;
23743;SDS011;12052;53.478;10.182;2022-07-03T14:52:26;2.40;;;1.20;;
23743;SDS011;12052;53.478;10.182;2022-07-03T14:54:54;1.70;;;0.82;;
23743;SDS011;12052;53.478;10.182;2022-07-03T14:57:25;2.80;;;1.00;;
23743;SDS011;12052;53.478;10.182;2022-07-03T15:00:02;1.48;;;1.08;;
23743;SDS011;12052;53.478;10.182;2022-07-03T15:02:37;4.20;;;1.17;;
23743;SDS011;12052;53.478;10.182;2022-07-03T15:05:10;5.15;;;0.95;;
23743;SDS011;12052;53.478;10.182;2022-07-03T15:07:38;3.17;;;0.95;;
23743;SDS011;12052;53.478;10.182;2022-07-03T15:10:09;1.40;;;0.82;;
23743;SDS011;12052;53.478;10.182;2022-07-03T15:12:40;1.88;;;1.08;;
23743;SDS011;12052;53.478;10.182;2022-07-03T15:15:13;2.88;;;0.90;;
23743;SDS011;12052;53.478;10.182;2022-07-03T15:17:42;2.08;;;0.80;;
23743;SDS011;12052;53.478;10.182;2022-07-03T15:20:09;1.20;;;0.80;;
23743;SDS011;12052;53.478;10.182;2022-07-03T15:22:41;1.23;;;0.90;;
23743;SDS011;12052;53.478;10.182;2022-07-03T15:25:09;1.20;;;1.03;;
23743;SDS011;12052;53.478;10.182;2022-07-03T15:27:37;2.33;;;0.93;;
23743;SDS011;12052;53.478;10.182;2022-07-03T15:30:03;1.35;;;1.13;;
23743;SDS011;12052;53.478;10.182;2022-07-03T15:32:30;2.20;;;0.98;;
23743;SDS011;12052;53.478;10.182;2022-07-03T15:34:56;1.67;;;0.80;;
23743;SDS011;12052;53.478;10.182;2022-07-03T15:40:09;6.88;;;1.23;;
23743;SDS011;12052;53.478;10.182;2022-07-03T15:42:48;1.85;;;0.90;;
23743;SDS011;12052;53.478;10.182;2022-07-03T15:53:51;1.30;;;0.90;;
23743;SDS011;12052;53.478;10.182;2022-07-03T15:56:29;1.92;;;0.80;;
23743;SDS011;12052;53.478;10.182;2022-07-03T15:58:59;1.67;;;0.80;;